createdAt,value
2022-11-29T00:01:07.069Z,96096.41
2022-11-29T00:03:35.752Z,96095.16
2022-11-29T00:06:07.697Z,96091.19
2022-11-29T00:08:36.220Z,96091.06
2022-11-29T00:11:07.044Z,96092.19
2022-11-29T00:13:35.362Z,96088.66
2022-11-29T00:16:05.022Z,96090.53
2022-11-29T00:18:33.390Z,96091.81
2022-11-29T00:21:06.664Z,96091.63
2022-11-29T00:23:35.173Z,96087.97
2022-11-29T00:26:08.395Z,96092.59
2022-11-29T00:28:37.714Z,96082.09
2022-11-29T00:31:15.440Z,96086.91
2022-11-29T00:33:43.721Z,96079.16
2022-11-29T00:36:11.970Z,96083.69
2022-11-29T00:38:40.522Z,96084.28
2022-11-29T00:41:10.629Z,96077.50
2022-11-29T00:43:39.003Z,96085.34
2022-11-29T00:46:08.991Z,96077.47
2022-11-29T00:48:37.706Z,96078.41
2022-11-29T00:51:06.978Z,96077.69
2022-11-29T00:53:36.187Z,96087.97
2022-11-29T00:56:04.958Z,96076.00
2022-11-29T00:58:34.541Z,96074.97
2022-11-29T01:01:02.824Z,96076.13
2022-11-29T01:03:31.277Z,96074.81
2022-11-29T01:06:02.851Z,96077.97
2022-11-29T01:08:31.113Z,96073.19
2022-11-29T01:11:06.456Z,96066.41
2022-11-29T01:13:36.405Z,96078.88
2022-11-29T01:16:05.479Z,96075.63
2022-11-29T01:18:34.207Z,96083.41
2022-11-29T01:21:04.755Z,96089.66
2022-11-29T01:23:33.075Z,96083.00
2022-11-29T01:26:02.792Z,96083.69
2022-11-29T01:28:31.540Z,96086.28
2022-11-29T01:31:01.195Z,96083.41
2022-11-29T01:33:29.478Z,96082.81
2022-11-29T01:35:57.694Z,96079.47
2022-11-29T01:38:26.027Z,96079.50
2022-11-29T01:40:59.319Z,96085.34
2022-11-29T01:43:27.763Z,96085.59
2022-11-29T01:45:56.143Z,96089.00
2022-11-29T01:48:28.703Z,96089.03
2022-11-29T01:51:00.206Z,96083.13
2022-11-29T01:53:29.215Z,96078.81
2022-11-29T01:56:02.173Z,96077.31
2022-11-29T01:58:31.135Z,96080.91
2022-11-29T02:00:59.577Z,96081.31
2022-11-29T02:03:29.235Z,96083.88
2022-11-29T02:05:57.523Z,96075.78
2022-11-29T02:08:28.900Z,96081.09
2022-11-29T02:11:13.934Z,96078.19
2022-11-29T02:13:50.400Z,96074.78
2022-11-29T02:16:23.783Z,96072.41
2022-11-29T02:19:01.339Z,96075.22
2022-11-29T02:21:37.641Z,96070.16
2022-11-29T02:24:20.913Z,96066.53
2022-11-29T02:27:07.282Z,96079.69
2022-11-29T02:30:09.018Z,96076.13
2022-11-29T02:33:18.855Z,96073.09
2022-11-29T02:36:08.740Z,96072.56
2022-11-29T02:38:57.242Z,96075.13
2022-11-29T02:41:35.695Z,96078.88
2022-11-29T02:44:30.216Z,96075.59
2022-11-29T02:47:09.171Z,96078.72
2022-11-29T02:49:55.249Z,96077.00
2022-11-29T02:52:31.239Z,96077.25
2022-11-29T02:55:06.263Z,96073.69
2022-11-29T02:57:38.629Z,96080.13
2022-11-29T03:00:10.560Z,96072.94
2022-11-29T03:02:44.707Z,96078.75
2022-11-29T03:05:20.405Z,96084.63
2022-11-29T03:07:56.277Z,96081.81
2022-11-29T03:10:32.201Z,96083.13
2022-11-29T03:13:01.103Z,96092.00
2022-11-29T03:15:31.399Z,96094.03
2022-11-29T03:18:09.006Z,96093.56
2022-11-29T03:20:50.564Z,96102.34
2022-11-29T03:23:24.802Z,96095.78
2022-11-29T03:25:57.057Z,96099.53
2022-11-29T03:28:30.410Z,96106.09
2022-11-29T03:31:03.269Z,96109.66
2022-11-29T03:33:36.862Z,96102.38
2022-11-29T03:36:11.617Z,96100.84
2022-11-29T03:38:42.453Z,96110.00
2022-11-29T03:41:19.917Z,96107.66
2022-11-29T03:43:52.727Z,96106.91
2022-11-29T03:46:26.377Z,96108.13
2022-11-29T03:48:57.941Z,96111.28
2022-11-29T03:51:38.943Z,96107.47
2022-11-29T03:54:11.613Z,96110.00
2022-11-29T03:56:41.450Z,96110.78
2022-11-29T03:59:20.015Z,96107.56
2022-11-29T04:02:27.087Z,96112.16
2022-11-29T04:05:45.840Z,96103.31
2022-11-29T04:08:49.611Z,96099.97
2022-11-29T04:11:54.955Z,96113.19
2022-11-29T04:14:35.927Z,96105.41
2022-11-29T04:17:31.633Z,96102.81
2022-11-29T04:20:39.702Z,96108.75
2022-11-29T04:23:42.822Z,96103.88
2022-11-29T04:26:34.688Z,96103.25
2022-11-29T04:29:20.028Z,96098.88
2022-11-29T04:32:04.791Z,96106.50
2022-11-29T04:34:47.942Z,96099.47
2022-11-29T04:37:27.927Z,96105.81
2022-11-29T04:40:08.785Z,96105.16
2022-11-29T04:43:00.439Z,96105.16
2022-11-29T04:45:42.297Z,96093.03
2022-11-29T04:48:33.633Z,96105.34
2022-11-29T04:51:10.205Z,96099.91
2022-11-29T04:53:50.636Z,96112.28
2022-11-29T04:56:24.943Z,96113.97
2022-11-29T04:58:56.827Z,96111.94
2022-11-29T05:01:31.207Z,96117.91
2022-11-29T05:04:03.996Z,96124.59
2022-11-29T05:06:36.697Z,96116.31
2022-11-29T05:09:11.979Z,96121.59
2022-11-29T05:11:51.574Z,96114.56
2022-11-29T05:14:31.236Z,96110.56
2022-11-29T05:17:10.764Z,96113.34
2022-11-29T05:19:52.965Z,96114.25
2022-11-29T05:22:28.924Z,96114.19
2022-11-29T05:25:03.891Z,96113.25
2022-11-29T05:27:41.919Z,96114.63
2022-11-29T05:30:14.548Z,96119.44
2022-11-29T05:32:51.839Z,96121.91
2022-11-29T05:35:52.658Z,96128.88
2022-11-29T05:38:35.855Z,96124.69
2022-11-29T05:41:16.038Z,96126.34
2022-11-29T05:43:55.081Z,96130.50
2022-11-29T05:46:30.590Z,96139.50
2022-11-29T05:49:04.692Z,96133.53
2022-11-29T05:51:41.718Z,96131.78
2022-11-29T05:54:18.017Z,96135.94
2022-11-29T05:56:54.561Z,96136.53
2022-11-29T05:59:24.700Z,96137.16
2022-11-29T06:01:59.259Z,96135.56
2022-11-29T06:04:30.500Z,96144.31
2022-11-29T06:07:04.426Z,96140.63
2022-11-29T06:09:36.232Z,96136.13
2022-11-29T06:12:06.849Z,96135.78
2022-11-29T06:14:38.696Z,96141.66
2022-11-29T06:17:38.874Z,96136.94
2022-11-29T06:20:24.696Z,96137.59
2022-11-29T06:23:16.859Z,96146.94
2022-11-29T06:25:59.479Z,96144.22
2022-11-29T06:28:42.839Z,96153.59
2022-11-29T06:31:16.364Z,96153.78
2022-11-29T06:33:51.719Z,96156.41
2022-11-29T06:36:22.617Z,96154.72
2022-11-29T06:38:51.343Z,96161.91
2022-11-29T06:41:21.937Z,96163.50
2022-11-29T06:43:50.530Z,96164.56
2022-11-29T06:46:26.698Z,96160.84
2022-11-29T06:49:02.340Z,96168.66
2022-11-29T06:51:34.705Z,96161.00
2022-11-29T06:54:13.816Z,96163.50
2022-11-29T06:56:46.094Z,96160.53
2022-11-29T06:59:27.602Z,96167.81
2022-11-29T07:02:00.762Z,96174.00
2022-11-29T07:04:50.670Z,96176.59
2022-11-29T07:07:21.773Z,96170.03
2022-11-29T07:09:52.787Z,96176.84
2022-11-29T07:12:21.705Z,96176.84
2022-11-29T07:14:50.638Z,96178.41
2022-11-29T07:17:25.420Z,96183.34
2022-11-29T07:20:03.591Z,96183.91
2022-11-29T07:22:46.162Z,96186.56
2022-11-29T07:25:23.011Z,96191.53
2022-11-29T07:27:58.558Z,96189.19
2022-11-29T07:30:29.426Z,96194.84
2022-11-29T07:33:03.129Z,96194.41
2022-11-29T07:35:35.631Z,96192.59
2022-11-29T07:38:11.022Z,96184.19
2022-11-29T07:40:44.649Z,96190.44
2022-11-29T07:43:22.464Z,96189.19
2022-11-29T07:45:52.121Z,96191.94
2022-11-29T07:48:20.387Z,96186.59
2022-11-29T07:50:50.281Z,96190.31
2022-11-29T07:53:20.060Z,96195.88
2022-11-29T07:55:49.198Z,96195.66
2022-11-29T07:58:18.391Z,96198.03
2022-11-29T08:00:47.353Z,96194.78
2022-11-29T08:03:15.719Z,96199.94
2022-11-29T08:05:47.161Z,96200.06
2022-11-29T08:08:17.106Z,96208.72
2022-11-29T08:10:45.929Z,96207.38
2022-11-29T08:13:14.559Z,96202.56
2022-11-29T08:15:45.555Z,96203.97
2022-11-29T08:18:13.946Z,96206.50
2022-11-29T08:20:42.478Z,96202.19
2022-11-29T08:23:12.709Z,96210.91
2022-11-29T08:25:42.672Z,96211.56
2022-11-29T08:28:11.012Z,96212.00
2022-11-29T08:30:39.628Z,96214.56
2022-11-29T08:33:08.136Z,96213.63
2022-11-29T08:35:36.854Z,96205.31
2022-11-29T08:38:05.196Z,96209.75
2022-11-29T08:40:33.466Z,96206.53
2022-11-29T08:43:03.126Z,96208.88
2022-11-29T08:45:31.507Z,96209.84
2022-11-29T08:47:59.759Z,96210.25
2022-11-29T08:50:27.949Z,96208.56
2022-11-29T08:53:14.046Z,96214.16
2022-11-29T08:55:43.076Z,96221.94
2022-11-29T08:58:14.834Z,96221.06
2022-11-29T09:00:45.629Z,96215.84
2022-11-29T09:03:31.752Z,96225.34
2022-11-29T09:06:00.049Z,96229.22
2022-11-29T09:08:28.248Z,96228.22
2022-11-29T09:10:56.531Z,96225.88
2022-11-29T09:13:26.097Z,96233.25
2022-11-29T09:15:54.312Z,96220.75
2022-11-29T09:18:22.779Z,96229.28
2022-11-29T09:20:51.087Z,96225.13
2022-11-29T09:23:19.281Z,96230.69
2022-11-29T09:25:49.498Z,96233.66
2022-11-29T09:28:17.829Z,96236.31
2022-11-29T09:30:47.517Z,96235.91
2022-11-29T09:33:15.778Z,96240.41
2022-11-29T09:35:44.160Z,96244.34
2022-11-29T09:38:13.253Z,96236.03
2022-11-29T09:40:44.079Z,96243.38
2022-11-29T09:43:22.966Z,96242.81
2022-11-29T09:45:57.950Z,96239.22
2022-11-29T09:48:44.600Z,96237.72
2022-11-29T09:51:19.310Z,96237.47
2022-11-29T09:54:04.072Z,96236.94
2022-11-29T09:56:35.672Z,96241.34
2022-11-29T09:59:05.745Z,96239.59
2022-11-29T10:01:39.015Z,96243.28
2022-11-29T10:04:12.193Z,96238.19
2022-11-29T10:06:43.230Z,96246.13
2022-11-29T10:09:16.701Z,96246.44
2022-11-29T10:11:53.992Z,96244.28
2022-11-29T10:14:24.534Z,96241.03
2022-11-29T10:16:59.065Z,96239.66
2022-11-29T10:19:32.648Z,96237.81
2022-11-29T10:22:05.140Z,96239.81
2022-11-29T10:24:34.295Z,96238.22
2022-11-29T10:27:03.222Z,96236.78
2022-11-29T10:29:31.517Z,96234.00
2022-11-29T10:32:10.069Z,96240.72
2022-11-29T10:34:38.885Z,96239.97
2022-11-29T10:37:10.675Z,96235.13
2022-11-29T10:39:42.432Z,96233.63
2022-11-29T10:42:36.183Z,96229.81
2022-11-29T10:45:06.200Z,96225.22
2022-11-29T10:47:35.945Z,96228.53
2022-11-29T10:50:04.220Z,96232.44
2022-11-29T10:52:32.484Z,96228.06
2022-11-29T10:55:01.279Z,96228.44
2022-11-29T10:57:29.701Z,96224.47
2022-11-29T11:00:04.521Z,96230.88
2022-11-29T11:02:33.096Z,96233.72
2022-11-29T11:05:02.959Z,96232.88
2022-11-29T11:07:35.160Z,96240.81
2022-11-29T11:10:06.439Z,96233.66
2022-11-29T11:12:36.925Z,96235.75
2022-11-29T11:15:17.111Z,96239.72
2022-11-29T11:17:58.344Z,96235.53
2022-11-29T11:20:29.799Z,96221.69
2022-11-29T11:23:00.076Z,96234.81
2022-11-29T11:25:30.606Z,96240.94
2022-11-29T11:27:59.698Z,96238.78
2022-11-29T11:30:29.280Z,96240.19
2022-11-29T11:33:15.743Z,96239.91
2022-11-29T11:35:45.415Z,96233.53
2022-11-29T11:38:17.502Z,96230.72
2022-11-29T11:40:46.588Z,96237.59
2022-11-29T11:43:20.534Z,96241.75
2022-11-29T11:45:53.362Z,96244.78
2022-11-29T11:48:21.900Z,96234.50
2022-11-29T11:50:54.330Z,96238.09
2022-11-29T11:53:24.267Z,96232.81
2022-11-29T11:55:59.175Z,96242.88
2022-11-29T11:58:28.847Z,96246.81
2022-11-29T12:01:04.373Z,96240.69
2022-11-29T12:03:38.893Z,96239.09
2022-11-29T12:06:27.470Z,96234.03
2022-11-29T12:08:59.011Z,96240.94
2022-11-29T12:11:28.104Z,96237.91
2022-11-29T12:13:58.121Z,96236.34
2022-11-29T12:16:30.159Z,96246.44
2022-11-29T12:19:01.350Z,96255.44
2022-11-29T12:21:36.015Z,96249.97
2022-11-29T12:24:13.984Z,96255.44
2022-11-29T12:26:57.066Z,96260.19
2022-11-29T12:29:28.860Z,96252.69
2022-11-29T12:31:59.178Z,96252.63
2022-11-29T12:34:42.388Z,96247.13
2022-11-29T12:37:17.433Z,96260.16
2022-11-29T12:39:58.926Z,96245.38
2022-11-29T12:42:47.210Z,96261.06
2022-11-29T12:45:32.206Z,96254.56
2022-11-29T12:48:08.913Z,96263.78
2022-11-29T12:50:43.479Z,96264.38
2022-11-29T12:53:27.073Z,96268.66
2022-11-29T12:56:07.154Z,96264.16
2022-11-29T12:58:46.105Z,96272.25
2022-11-29T13:01:21.351Z,96264.19
2022-11-29T13:03:57.237Z,96270.97
2022-11-29T13:06:30.644Z,96261.53
2022-11-29T13:09:12.299Z,96267.19
2022-11-29T13:11:43.171Z,96269.50
2022-11-29T13:14:41.680Z,96270.75
2022-11-29T13:17:05.042Z,96270.75
2022-11-29T13:19:37.486Z,96275.09
2022-11-29T13:22:12.032Z,96279.25
2022-11-29T13:24:44.174Z,96285.41
2022-11-29T13:27:18.188Z,96278.59
2022-11-29T13:29:47.850Z,96278.50
2022-11-29T13:32:30.153Z,96278.25
2022-11-29T13:35:01.507Z,96283.53
2022-11-29T13:37:35.002Z,96287.03
2022-11-29T13:40:19.377Z,96285.72
2022-11-29T13:42:51.626Z,96287.31
2022-11-29T13:45:24.295Z,96290.94
2022-11-29T13:47:55.029Z,96290.44
2022-11-29T13:50:40.593Z,96280.72
2022-11-29T13:53:15.623Z,96291.97
2022-11-29T13:55:50.054Z,96295.13
2022-11-29T13:58:34.408Z,96297.59
2022-11-29T14:01:04.033Z,96298.94
2022-11-29T14:03:36.145Z,96297.81
2022-11-29T14:06:18.280Z,96299.28
2022-11-29T14:09:19.983Z,96294.06
2022-11-29T14:11:52.507Z,96300.19
2022-11-29T14:14:26.134Z,96301.72
2022-11-29T14:16:56.938Z,96299.94
2022-11-29T14:19:33.160Z,96303.03
2022-11-29T14:22:22.225Z,96298.56
2022-11-29T14:24:58.773Z,96301.25
2022-11-29T14:27:57.543Z,96298.84
2022-11-29T14:30:52.444Z,96307.22
2022-11-29T14:33:39.094Z,96306.28
2022-11-29T14:36:40.021Z,96309.25
2022-11-29T14:39:25.318Z,96308.34
2022-11-29T14:42:01.284Z,96315.34
2022-11-29T14:44:32.480Z,96320.22
2022-11-29T14:47:03.383Z,96321.03
2022-11-29T14:49:33.088Z,96322.47
2022-11-29T14:52:21.494Z,96326.22
2022-11-29T14:55:01.711Z,96327.34
2022-11-29T14:58:15.602Z,96318.22
2022-11-29T15:01:08.051Z,96313.38
2022-11-29T15:03:48.150Z,96319.06
2022-11-29T15:06:24.297Z,96324.63
2022-11-29T15:08:57.729Z,96327.81
2022-11-29T15:11:36.565Z,96331.59
2022-11-29T15:14:07.872Z,96332.72
2022-11-29T15:17:01.510Z,96335.88
2022-11-29T15:20:11.640Z,96330.25
2022-11-29T15:22:47.914Z,96337.69
2022-11-29T15:25:18.695Z,96335.78
2022-11-29T15:27:54.002Z,96339.13
2022-11-29T15:30:29.942Z,96334.38
2022-11-29T15:33:00.681Z,96339.19
2022-11-29T15:35:29.240Z,96334.69
2022-11-29T15:37:58.127Z,96341.94
2022-11-29T15:40:33.030Z,96341.75
2022-11-29T15:43:05.110Z,96346.19
2022-11-29T15:45:34.906Z,96345.13
2022-11-29T15:48:17.294Z,96354.09
2022-11-29T15:50:50.324Z,96351.56
2022-11-29T15:53:22.831Z,96354.47
2022-11-29T15:55:52.285Z,96357.19
2022-11-29T15:58:20.975Z,96360.47
2022-11-29T16:00:51.072Z,96366.94
2022-11-29T16:03:25.229Z,96371.84
2022-11-29T16:05:58.790Z,96365.47
2022-11-29T16:08:27.723Z,96370.38
2022-11-29T16:10:56.107Z,96366.19
2022-11-29T16:13:35.962Z,96374.91
2022-11-29T16:16:13.263Z,96368.75
2022-11-29T16:18:44.333Z,96363.56
2022-11-29T16:21:26.329Z,96369.25
2022-11-29T16:23:54.900Z,96372.13
2022-11-29T16:26:25.117Z,96383.78
2022-11-29T16:28:56.417Z,96378.56
2022-11-29T16:31:31.132Z,96379.72
2022-11-29T16:34:07.661Z,96380.38
2022-11-29T16:36:36.430Z,96382.28
2022-11-29T16:39:07.301Z,96380.81
2022-11-29T16:41:36.761Z,96382.38
2022-11-29T16:44:06.196Z,96380.41
2022-11-29T16:46:37.534Z,96377.19
2022-11-29T16:49:37.295Z,96374.97
2022-11-29T16:52:24.038Z,96379.19
2022-11-29T16:54:52.448Z,96382.50
2022-11-29T16:57:20.771Z,96378.31
2022-11-29T16:59:49.331Z,96374.59
2022-11-29T17:02:17.891Z,96378.97
2022-11-29T17:04:47.893Z,96386.66
2022-11-29T17:07:19.202Z,96384.69
2022-11-29T17:09:47.653Z,96381.38
2022-11-29T17:12:16.542Z,96375.41
2022-11-29T17:14:45.269Z,96385.28
2022-11-29T17:17:14.942Z,96380.41
2022-11-29T17:19:43.152Z,96390.38
2022-11-29T17:22:13.341Z,96398.84
2022-11-29T17:24:46.409Z,96402.44
2022-11-29T17:27:16.204Z,96404.09
2022-11-29T17:29:44.446Z,96398.28
2022-11-29T17:32:12.724Z,96388.03
2022-11-29T17:34:41.062Z,96391.91
2022-11-29T17:37:09.266Z,96396.19
2022-11-29T17:39:38.911Z,96401.91
2022-11-29T17:42:07.140Z,96407.66
2022-11-29T17:44:35.692Z,96408.69
2022-11-29T17:47:03.930Z,96411.88
2022-11-29T17:49:32.133Z,96409.94
2022-11-29T17:52:00.353Z,96403.00
2022-11-29T17:54:29.430Z,96420.31
2022-11-29T17:56:58.994Z,96427.66
2022-11-29T17:59:27.263Z,96428.75
2022-11-29T18:01:55.615Z,96430.44
2022-11-29T18:04:23.924Z,96430.03
2022-11-29T18:06:52.346Z,96442.47
2022-11-29T18:09:20.675Z,96432.78
2022-11-29T18:11:50.611Z,96435.28
2022-11-29T18:14:22.768Z,96426.84
2022-11-29T18:16:51.461Z,96431.81
2022-11-29T18:19:21.021Z,96441.91
2022-11-29T18:21:49.999Z,96438.03
2022-11-29T18:24:18.702Z,96446.59
2022-11-29T18:26:47.143Z,96448.44
2022-11-29T18:29:15.629Z,96460.78
2022-11-29T18:31:46.006Z,96447.59
2022-11-29T18:34:15.272Z,96450.78
2022-11-29T18:36:45.109Z,96442.75
2022-11-29T18:39:15.058Z,96447.59
2022-11-29T18:41:44.523Z,96453.38
2022-11-29T18:44:14.764Z,96448.88
2022-11-29T18:46:46.222Z,96447.63
2022-11-29T18:49:15.800Z,96453.44
2022-11-29T18:51:45.773Z,96458.69
2022-11-29T18:54:14.832Z,96460.47
2022-11-29T18:56:43.736Z,96452.44
2022-11-29T18:59:14.609Z,96459.09
2022-11-29T19:01:43.554Z,96467.81
2022-11-29T19:04:14.642Z,96470.69
2022-11-29T19:06:43.905Z,96470.00
2022-11-29T19:09:14.678Z,96470.03
2022-11-29T19:11:43.089Z,96477.06
2022-11-29T19:14:12.812Z,96465.94
2022-11-29T19:16:43.315Z,96469.56
2022-11-29T19:19:13.005Z,96469.63
2022-11-29T19:21:41.671Z,96487.13
2022-11-29T19:24:15.011Z,96481.28
2022-11-29T19:26:44.741Z,96486.16
2022-11-29T19:29:13.817Z,96490.31
2022-11-29T19:31:42.628Z,96490.50
2022-11-29T19:34:12.731Z,96486.19
2022-11-29T19:36:43.302Z,96484.91
2022-11-29T19:39:13.551Z,96482.34
2022-11-29T19:41:42.840Z,96483.28
2022-11-29T19:44:11.767Z,96488.09
2022-11-29T19:46:41.903Z,96485.34
2022-11-29T19:49:11.081Z,96479.47
2022-11-29T19:51:40.645Z,96489.44
2022-11-29T19:54:10.381Z,96499.28
2022-11-29T19:56:39.279Z,96505.03
2022-11-29T19:59:08.604Z,96503.16
2022-11-29T20:01:41.289Z,96499.19
2022-11-29T20:04:11.448Z,96507.91
2022-11-29T20:06:41.736Z,96500.75
2022-11-29T20:09:10.627Z,96504.06
2022-11-29T20:11:38.902Z,96510.56
2022-11-29T20:14:08.148Z,96512.16
2022-11-29T20:16:38.066Z,96511.94
2022-11-29T20:19:09.967Z,96506.38
2022-11-29T20:21:43.968Z,96510.47
2022-11-29T20:24:14.213Z,96509.91
2022-11-29T20:26:43.951Z,96520.66
2022-11-29T20:29:13.277Z,96522.69
2022-11-29T20:31:49.031Z,96519.31
2022-11-29T20:34:18.885Z,96509.56
2022-11-29T20:37:06.727Z,96514.31
2022-11-29T20:39:40.069Z,96515.53
2022-11-29T20:42:34.416Z,96519.38
2022-11-29T20:45:04.938Z,96517.34
2022-11-29T20:47:35.594Z,96520.63
2022-11-29T20:50:03.794Z,96523.41
2022-11-29T20:52:39.271Z,96529.53
2022-11-29T20:55:08.209Z,96525.69
2022-11-29T20:57:38.255Z,96531.00
2022-11-29T21:00:08.177Z,96536.34
2022-11-29T21:02:36.439Z,96534.09
2022-11-29T21:05:05.469Z,96532.19
2022-11-29T21:07:35.181Z,96536.53
2022-11-29T21:10:03.531Z,96540.13
2022-11-29T21:12:32.681Z,96540.41
2022-11-29T21:15:01.416Z,96540.56
2022-11-29T21:17:33.679Z,96535.06
2022-11-29T21:20:03.152Z,96538.66
2022-11-29T21:22:39.883Z,96543.06
2022-11-29T21:25:15.302Z,96545.19
2022-11-29T21:27:44.254Z,96546.84
2022-11-29T21:30:18.679Z,96544.34
2022-11-29T21:32:47.983Z,96545.13
2022-11-29T21:35:16.970Z,96539.44
2022-11-29T21:37:46.865Z,96537.09
2022-11-29T21:40:16.968Z,96544.41
2022-11-29T21:42:45.299Z,96543.44
2022-11-29T21:45:15.802Z,96535.50
2022-11-29T21:47:44.679Z,96538.13
2022-11-29T21:50:13.663Z,96539.31
2022-11-29T21:52:41.973Z,96545.00
2022-11-29T21:55:13.721Z,96539.22
2022-11-29T21:57:41.948Z,96549.16
2022-11-29T22:00:10.912Z,96542.41
2022-11-29T22:02:39.366Z,96545.63
2022-11-29T22:05:09.602Z,96543.13
2022-11-29T22:07:37.925Z,96546.00
2022-11-29T22:10:13.098Z,96544.72
2022-11-29T22:12:51.987Z,96552.88
2022-11-29T22:15:24.802Z,96547.28
2022-11-29T22:17:53.445Z,96549.41
2022-11-29T22:20:21.705Z,96548.31
2022-11-29T22:22:50.138Z,96543.31
2022-11-29T22:25:19.610Z,96540.06
2022-11-29T22:27:51.571Z,96536.53
2022-11-29T22:30:20.032Z,96539.19
2022-11-29T22:32:48.287Z,96541.53
2022-11-29T22:35:16.799Z,96540.13
2022-11-29T22:37:45.144Z,96532.94
2022-11-29T22:40:13.912Z,96539.09
2022-11-29T22:42:43.276Z,96532.81
2022-11-29T22:45:13.103Z,96539.59
2022-11-29T22:47:41.346Z,96544.88
2022-11-29T22:50:11.118Z,96541.16
2022-11-29T22:52:39.371Z,96543.97
2022-11-29T22:55:08.138Z,96539.44
2022-11-29T22:57:36.534Z,96539.59
2022-11-29T23:00:06.170Z,96538.19
2022-11-29T23:02:35.809Z,96536.16
2022-11-29T23:05:04.116Z,96534.25
2022-11-29T23:07:32.431Z,96531.78
2022-11-29T23:10:00.697Z,96534.63
2022-11-29T23:12:29.159Z,96532.78
2022-11-29T23:14:57.728Z,96527.38
2022-11-29T23:17:26.142Z,96524.78
2022-11-29T23:19:55.712Z,96527.16
2022-11-29T23:22:23.911Z,96532.38
2022-11-29T23:24:52.100Z,96537.41
2022-11-29T23:27:20.430Z,96541.63
2022-11-29T23:29:48.736Z,96534.19
2022-11-29T23:32:16.958Z,96524.47
2022-11-29T23:34:45.618Z,96531.00
2022-11-29T23:37:15.303Z,96533.81
2022-11-29T23:39:43.519Z,96535.19
2022-11-29T23:42:11.766Z,96532.16
2022-11-29T23:44:39.975Z,96536.78
2022-11-29T23:47:08.190Z,96531.47
2022-11-29T23:49:39.866Z,96535.13
2022-11-29T23:52:08.190Z,96537.56
2022-11-29T23:54:37.765Z,96535.28
2022-11-29T23:57:06.076Z,96536.44
2022-11-29T23:59:34.350Z,96535.91
